sensor_id;sensor_type;location;lat;lon;timestamp;temperature;humidity
3944;DHT22;1986;52.546;13.428;2023-11-19T00:02:25;4.20;99.90
3944;DHT22;1986;52.546;13.428;2023-11-19T00:04:52;4.20;99.90
3944;DHT22;1986;52.546;13.428;2023-11-19T00:07:23;4.20;99.90
3944;DHT22;1986;52.546;13.428;2023-11-19T00:09:50;4.20;99.90
3944;DHT22;1986;52.546;13.428;2023-11-19T00:12:17;4.20;99.90
3944;DHT22;1986;52.546;13.428;2023-11-19T00:14:44;4.20;99.90
3944;DHT22;1986;52.546;13.428;2023-11-19T00:17:12;4.20;99.90
3944;DHT22;1986;52.546;13.428;2023-11-19T00:19:40;4.20;99.90
3944;DHT22;1986;52.546;13.428;2023-11-19T00:22:07;4.20;99.90
3944;DHT22;1986;52.546;13.428;2023-11-19T00:24:34;4.20;99.90
3944;DHT22;1986;52.546;13.428;2023-11-19T00:27:02;4.20;99.90
3944;DHT22;1986;52.546;13.428;2023-11-19T00:29:29;4.20;99.90
3944;DHT22;1986;52.546;13.428;2023-11-19T00:31:56;4.20;99.90
3944;DHT22;1986;52.546;13.428;2023-11-19T00:34:25;4.20;99.90
3944;DHT22;1986;52.546;13.428;2023-11-19T00:36:53;4.20;99.90
3944;DHT22;1986;52.546;13.428;2023-11-19T00:39:21;4.30;99.90
3944;DHT22;1986;52.546;13.428;2023-11-19T00:41:49;4.30;99.90
3944;DHT22;1986;52.546;13.428;2023-11-19T00:44:16;4.30;99.90
3944;DHT22;1986;52.546;13.428;2023-11-19T00:46:45;4.30;99.90
3944;DHT22;1986;52.546;13.428;2023-11-19T00:49:13;4.30;99.90
3944;DHT22;1986;52.546;13.428;2023-11-19T00:51:42;4.40;99.90
3944;DHT22;1986;52.546;13.428;2023-11-19T00:54:11;4.40;99.90
3944;DHT22;1986;52.546;13.428;2023-11-19T00:56:39;4.40;99.90
3944;DHT22;1986;52.546;13.428;2023-11-19T00:59:06;4.40;99.90
3944;DHT22;1986;52.546;13.428;2023-11-19T01:01:33;4.40;99.90
3944;DHT22;1986;52.546;13.428;2023-11-19T01:04:00;4.40;99.90
3944;DHT22;1986;52.546;13.428;2023-11-19T01:06:29;4.40;99.90
3944;DHT22;1986;52.546;13.428;2023-11-19T01:08:57;4.40;99.90
3944;DHT22;1986;52.546;13.428;2023-11-19T01:11:26;4.40;99.90
3944;DHT22;1986;52.546;13.428;2023-11-19T01:13:54;4.40;99.90
3944;DHT22;1986;52.546;13.428;2023-11-19T01:16:21;4.50;99.90
3944;DHT22;1986;52.546;13.428;2023-11-19T01:18:48;4.50;99.90
3944;DHT22;1986;52.546;13.428;2023-11-19T01:21:15;4.50;99.90
3944;DHT22;1986;52.546;13.428;2023-11-19T01:23:45;4.50;99.90
3944;DHT22;1986;52.546;13.428;2023-11-19T01:26:15;4.50;99.90
3944;DHT22;1986;52.546;13.428;2023-11-19T01:28:43;4.60;99.90
3944;DHT22;1986;52.546;13.428;2023-11-19T01:31:15;4.60;99.90
3944;DHT22;1986;52.546;13.428;2023-11-19T01:33:42;4.60;99.90
3944;DHT22;1986;52.546;13.428;2023-11-19T01:36:13;4.70;99.90
3944;DHT22;1986;52.546;13.428;2023-11-19T01:38:40;4.70;99.90
3944;DHT22;1986;52.546;13.428;2023-11-19T01:41:07;4.70;99.90
3944;DHT22;1986;52.546;13.428;2023-11-19T01:43:38;4.70;99.90
3944;DHT22;1986;52.546;13.428;2023-11-19T01:46:07;4.70;99.90
3944;DHT22;1986;52.546;13.428;2023-11-19T01:48:38;4.80;99.90
3944;DHT22;1986;52.546;13.428;2023-11-19T01:51:08;4.80;99.90
3944;DHT22;1986;52.546;13.428;2023-11-19T01:53:37;4.80;99.90
3944;DHT22;1986;52.546;13.428;2023-11-19T01:56:08;4.70;99.90
3944;DHT22;1986;52.546;13.428;2023-11-19T01:58:38;4.70;99.90
3944;DHT22;1986;52.546;13.428;2023-11-19T02:01:06;4.80;99.90
3944;DHT22;1986;52.546;13.428;2023-11-19T02:03:33;4.70;99.90
3944;DHT22;1986;52.546;13.428;2023-11-19T02:06:01;4.70;99.90
3944;DHT22;1986;52.546;13.428;2023-11-19T02:08:29;4.70;99.90
3944;DHT22;1986;52.546;13.428;2023-11-19T02:10:56;4.70;99.90
3944;DHT22;1986;52.546;13.428;2023-11-19T02:13:24;4.70;99.90
3944;DHT22;1986;52.546;13.428;2023-11-19T02:15:52;4.60;99.90
3944;DHT22;1986;52.546;13.428;2023-11-19T02:18:24;4.60;99.90
3944;DHT22;1986;52.546;13.428;2023-11-19T02:20:53;4.50;99.90
3944;DHT22;1986;52.546;13.428;2023-11-19T02:23:21;4.60;99.90
3944;DHT22;1986;52.546;13.428;2023-11-19T02:26:00;4.60;99.90
3944;DHT22;1986;52.546;13.428;2023-11-19T02:28:33;4.60;99.90
3944;DHT22;1986;52.546;13.428;2023-11-19T02:31:00;4.60;99.90
3944;DHT22;1986;52.546;13.428;2023-11-19T02:33:27;4.60;99.90
3944;DHT22;1986;52.546;13.428;2023-11-19T02:35:58;4.60;99.90
3944;DHT22;1986;52.546;13.428;2023-11-19T02:38:26;4.60;99.90
3944;DHT22;1986;52.546;13.428;2023-11-19T02:40:56;4.60;99.90
3944;DHT22;1986;52.546;13.428;2023-11-19T02:43:23;4.70;99.90
3944;DHT22;1986;52.546;13.428;2023-11-19T02:45:52;4.70;99.90
3944;DHT22;1986;52.546;13.428;2023-11-19T02:48:21;4.80;99.90
3944;DHT22;1986;52.546;13.428;2023-11-19T02:50:48;4.80;99.90
3944;DHT22;1986;52.546;13.428;2023-11-19T02:53:16;4.80;99.90
3944;DHT22;1986;52.546;13.428;2023-11-19T02:55:47;4.80;99.90
3944;DHT22;1986;52.546;13.428;2023-11-19T02:58:16;4.80;99.90
3944;DHT22;1986;52.546;13.428;2023-11-19T03:00:50;4.80;99.90
3944;DHT22;1986;52.546;13.428;2023-11-19T03:03:24;4.80;99.90
3944;DHT22;1986;52.546;13.428;2023-11-19T03:05:58;4.80;99.90
3944;DHT22;1986;52.546;13.428;2023-11-19T03:08:30;4.90;99.90
3944;DHT22;1986;52.546;13.428;2023-11-19T03:10:57;4.90;99.90
3944;DHT22;1986;52.546;13.428;2023-11-19T03:13:24;4.90;99.90
3944;DHT22;1986;52.546;13.428;2023-11-19T03:15:53;4.90;99.90
3944;DHT22;1986;52.546;13.428;2023-11-19T03:18:20;5.00;99.90
3944;DHT22;1986;52.546;13.428;2023-11-19T03:20:49;5.00;99.90
3944;DHT22;1986;52.546;13.428;2023-11-19T03:23:16;5.00;99.90
3944;DHT22;1986;52.546;13.428;2023-11-19T03:25:46;5.00;99.90
3944;DHT22;1986;52.546;13.428;2023-11-19T03:28:14;5.10;99.90
3944;DHT22;1986;52.546;13.428;2023-11-19T03:30:41;5.10;99.90
3944;DHT22;1986;52.546;13.428;2023-11-19T03:33:10;5.10;99.90
3944;DHT22;1986;52.546;13.428;2023-11-19T03:35:37;5.00;99.90
3944;DHT22;1986;52.546;13.428;2023-11-19T03:38:07;5.00;99.90
3944;DHT22;1986;52.546;13.428;2023-11-19T03:40:33;4.90;99.90
3944;DHT22;1986;52.546;13.428;2023-11-19T03:43:01;4.70;99.90
3944;DHT22;1986;52.546;13.428;2023-11-19T03:45:30;4.70;99.90
3944;DHT22;1986;52.546;13.428;2023-11-19T03:47:57;4.60;99.90
3944;DHT22;1986;52.546;13.428;2023-11-19T03:50:25;4.50;99.90
3944;DHT22;1986;52.546;13.428;2023-11-19T03:52:52;4.50;99.90
3944;DHT22;1986;52.546;13.428;2023-11-19T03:55:20;4.40;99.90
3944;DHT22;1986;52.546;13.428;2023-11-19T03:57:46;4.30;99.90
3944;DHT22;1986;52.546;13.428;2023-11-19T04:00:14;4.30;99.90
3944;DHT22;1986;52.546;13.428;2023-11-19T04:02:41;4.30;99.90
3944;DHT22;1986;52.546;13.428;2023-11-19T04:05:08;4.30;99.90
3944;DHT22;1986;52.546;13.428;2023-11-19T04:07:38;4.20;99.90
3944;DHT22;1986;52.546;13.428;2023-11-19T04:10:06;4.20;99.90
3944;DHT22;1986;52.546;13.428;2023-11-19T04:12:33;4.20;99.90
3944;DHT22;1986;52.546;13.428;2023-11-19T04:15:01;4.20;99.90
3944;DHT22;1986;52.546;13.428;2023-11-19T04:17:28;4.20;99.90
3944;DHT22;1986;52.546;13.428;2023-11-19T04:19:55;4.20;99.90
3944;DHT22;1986;52.546;13.428;2023-11-19T04:22:25;4.20;99.90
3944;DHT22;1986;52.546;13.428;2023-11-19T04:24:53;4.20;99.90
3944;DHT22;1986;52.546;13.428;2023-11-19T04:27:21;4.20;99.90
3944;DHT22;1986;52.546;13.428;2023-11-19T04:29:48;4.20;99.90
3944;DHT22;1986;52.546;13.428;2023-11-19T04:32:16;4.20;99.90
3944;DHT22;1986;52.546;13.428;2023-11-19T04:34:43;4.30;99.90
3944;DHT22;1986;52.546;13.428;2023-11-19T04:37:10;4.20;99.90
3944;DHT22;1986;52.546;13.428;2023-11-19T04:39:37;4.30;99.90
3944;DHT22;1986;52.546;13.428;2023-11-19T04:42:06;4.30;99.90
3944;DHT22;1986;52.546;13.428;2023-11-19T04:44:33;4.20;99.90
3944;DHT22;1986;52.546;13.428;2023-11-19T04:47:00;4.30;99.90
3944;DHT22;1986;52.546;13.428;2023-11-19T04:49:27;4.20;99.90
3944;DHT22;1986;52.546;13.428;2023-11-19T04:51:55;4.20;99.90
3944;DHT22;1986;52.546;13.428;2023-11-19T04:54:22;4.20;99.90
3944;DHT22;1986;52.546;13.428;2023-11-19T04:56:50;4.20;99.90
3944;DHT22;1986;52.546;13.428;2023-11-19T04:59:18;4.20;99.90
3944;DHT22;1986;52.546;13.428;2023-11-19T05:01:46;4.20;99.90
3944;DHT22;1986;52.546;13.428;2023-11-19T05:04:13;4.20;99.90
3944;DHT22;1986;52.546;13.428;2023-11-19T05:06:41;4.20;99.90
3944;DHT22;1986;52.546;13.428;2023-11-19T05:09:08;4.30;99.90
3944;DHT22;1986;52.546;13.428;2023-11-19T05:11:38;4.30;99.90
3944;DHT22;1986;52.546;13.428;2023-11-19T05:14:07;4.30;99.90
3944;DHT22;1986;52.546;13.428;2023-11-19T05:16:37;4.30;99.90
3944;DHT22;1986;52.546;13.428;2023-11-19T05:19:05;4.40;99.90
3944;DHT22;1986;52.546;13.428;2023-11-19T05:21:35;4.40;99.90
3944;DHT22;1986;52.546;13.428;2023-11-19T05:24:03;4.40;99.90
3944;DHT22;1986;52.546;13.428;2023-11-19T05:26:31;4.40;99.90
3944;DHT22;1986;52.546;13.428;2023-11-19T05:28:59;4.50;99.90
3944;DHT22;1986;52.546;13.428;2023-11-19T05:31:26;4.50;99.90
3944;DHT22;1986;52.546;13.428;2023-11-19T05:33:55;4.60;99.90
3944;DHT22;1986;52.546;13.428;2023-11-19T05:36:22;4.60;99.90
3944;DHT22;1986;52.546;13.428;2023-11-19T05:38:49;4.60;99.90
3944;DHT22;1986;52.546;13.428;2023-11-19T05:41:16;4.70;99.90
3944;DHT22;1986;52.546;13.428;2023-11-19T05:43:43;4.70;99.90
3944;DHT22;1986;52.546;13.428;2023-11-19T05:46:10;4.80;99.90
3944;DHT22;1986;52.546;13.428;2023-11-19T05:48:40;4.80;99.90
3944;DHT22;1986;52.546;13.428;2023-11-19T05:51:08;4.80;99.90
3944;DHT22;1986;52.546;13.428;2023-11-19T05:53:35;4.90;99.90
3944;DHT22;1986;52.546;13.428;2023-11-19T05:56:02;4.90;99.90
3944;DHT22;1986;52.546;13.428;2023-11-19T05:58:29;4.90;99.90
3944;DHT22;1986;52.546;13.428;2023-11-19T06:00:58;4.90;99.90
3944;DHT22;1986;52.546;13.428;2023-11-19T06:03:28;5.00;99.90
3944;DHT22;1986;52.546;13.428;2023-11-19T06:05:55;5.00;99.90
3944;DHT22;1986;52.546;13.428;2023-11-19T06:08:23;5.10;99.90
3944;DHT22;1986;52.546;13.428;2023-11-19T06:10:52;5.10;99.90
3944;DHT22;1986;52.546;13.428;2023-11-19T06:13:19;5.20;99.90
3944;DHT22;1986;52.546;13.428;2023-11-19T06:15:47;5.20;99.90
3944;DHT22;1986;52.546;13.428;2023-11-19T06:18:14;5.30;99.90
3944;DHT22;1986;52.546;13.428;2023-11-19T06:20:45;5.30;99.90
3944;DHT22;1986;52.546;13.428;2023-11-19T06:23:13;5.30;99.90
3944;DHT22;1986;52.546;13.428;2023-11-19T06:25:42;5.40;99.90
3944;DHT22;1986;52.546;13.428;2023-11-19T06:28:09;5.40;99.90
3944;DHT22;1986;52.546;13.428;2023-11-19T06:30:36;5.40;99.90
3944;DHT22;1986;52.546;13.428;2023-11-19T06:33:03;5.40;99.90
3944;DHT22;1986;52.546;13.428;2023-11-19T06:35:30;5.40;99.90
3944;DHT22;1986;52.546;13.428;2023-11-19T06:38:05;5.40;99.90
3944;DHT22;1986;52.546;13.428;2023-11-19T06:40:32;5.40;99.90
3944;DHT22;1986;52.546;13.428;2023-11-19T06:43:02;5.40;99.90
3944;DHT22;1986;52.546;13.428;2023-11-19T06:45:29;5.40;99.90
3944;DHT22;1986;52.546;13.428;2023-11-19T06:47:56;5.50;99.90
3944;DHT22;1986;52.546;13.428;2023-11-19T06:50:24;5.50;99.90
3944;DHT22;1986;52.546;13.428;2023-11-19T06:52:51;5.50;99.90
3944;DHT22;1986;52.546;13.428;2023-11-19T06:55:18;5.60;99.90
3944;DHT22;1986;52.546;13.428;2023-11-19T06:57:45;5.60;99.90
3944;DHT22;1986;52.546;13.428;2023-11-19T07:00:16;5.60;99.90
3944;DHT22;1986;52.546;13.428;2023-11-19T07:02:43;5.70;99.90
3944;DHT22;1986;52.546;13.428;2023-11-19T07:05:10;5.80;99.90
3944;DHT22;1986;52.546;13.428;2023-11-19T07:07:40;5.70;99.90
3944;DHT22;1986;52.546;13.428;2023-11-19T07:10:07;5.80;99.90
3944;DHT22;1986;52.546;13.428;2023-11-19T07:12:35;5.80;99.90
3944;DHT22;1986;52.546;13.428;2023-11-19T07:15:02;5.90;99.90
3944;DHT22;1986;52.546;13.428;2023-11-19T07:17:31;5.90;99.90
3944;DHT22;1986;52.546;13.428;2023-11-19T07:20:00;5.90;99.90
3944;DHT22;1986;52.546;13.428;2023-11-19T07:22:35;6.00;99.90
3944;DHT22;1986;52.546;13.428;2023-11-19T07:25:04;6.10;99.90
3944;DHT22;1986;52.546;13.428;2023-11-19T07:27:31;6.10;99.90
3944;DHT22;1986;52.546;13.428;2023-11-19T07:29:58;6.10;99.90
3944;DHT22;1986;52.546;13.428;2023-11-19T07:32:25;6.20;99.90
3944;DHT22;1986;52.546;13.428;2023-11-19T07:34:56;6.20;99.90
3944;DHT22;1986;52.546;13.428;2023-11-19T07:37:25;6.20;99.90
3944;DHT22;1986;52.546;13.428;2023-11-19T07:39:52;6.30;99.90
3944;DHT22;1986;52.546;13.428;2023-11-19T07:42:19;6.30;99.90
3944;DHT22;1986;52.546;13.428;2023-11-19T07:44:46;6.40;99.90
3944;DHT22;1986;52.546;13.428;2023-11-19T07:47:13;6.40;99.90
3944;DHT22;1986;52.546;13.428;2023-11-19T07:49:40;6.40;99.90
3944;DHT22;1986;52.546;13.428;2023-11-19T07:52:10;6.40;99.90
3944;DHT22;1986;52.546;13.428;2023-11-19T07:54:40;6.70;99.90
3944;DHT22;1986;52.546;13.428;2023-11-19T07:57:07;6.70;99.90
3944;DHT22;1986;52.546;13.428;2023-11-19T07:59:34;6.70;99.90
3944;DHT22;1986;52.546;13.428;2023-11-19T08:02:02;6.80;99.90
3944;DHT22;1986;52.546;13.428;2023-11-19T08:04:29;6.80;99.90
3944;DHT22;1986;52.546;13.428;2023-11-19T08:06:56;6.90;99.90
3944;DHT22;1986;52.546;13.428;2023-11-19T08:09:24;7.00;99.90
3944;DHT22;1986;52.546;13.428;2023-11-19T08:11:51;7.00;99.90
3944;DHT22;1986;52.546;13.428;2023-11-19T08:14:19;7.10;99.90
3944;DHT22;1986;52.546;13.428;2023-11-19T08:16:46;7.10;99.90
3944;DHT22;1986;52.546;13.428;2023-11-19T08:19:13;7.10;99.90
3944;DHT22;1986;52.546;13.428;2023-11-19T08:21:40;7.10;99.90
3944;DHT22;1986;52.546;13.428;2023-11-19T08:24:07;7.20;99.90
3944;DHT22;1986;52.546;13.428;2023-11-19T08:26:36;7.30;99.90
3944;DHT22;1986;52.546;13.428;2023-11-19T08:29:03;7.30;99.90
3944;DHT22;1986;52.546;13.428;2023-11-19T08:31:30;7.40;99.90
3944;DHT22;1986;52.546;13.428;2023-11-19T08:33:57;7.60;99.90
3944;DHT22;1986;52.546;13.428;2023-11-19T08:36:23;7.60;99.90
3944;DHT22;1986;52.546;13.428;2023-11-19T08:38:50;7.60;99.90
3944;DHT22;1986;52.546;13.428;2023-11-19T08:41:18;7.80;99.90
3944;DHT22;1986;52.546;13.428;2023-11-19T08:43:46;8.00;99.90
3944;DHT22;1986;52.546;13.428;2023-11-19T08:46:13;8.00;99.90
3944;DHT22;1986;52.546;13.428;2023-11-19T08:48:40;8.00;99.90
3944;DHT22;1986;52.546;13.428;2023-11-19T08:51:07;8.10;99.90
3944;DHT22;1986;52.546;13.428;2023-11-19T08:53:34;8.20;99.90
3944;DHT22;1986;52.546;13.428;2023-11-19T08:56:01;8.40;99.90
3944;DHT22;1986;52.546;13.428;2023-11-19T08:58:28;8.50;99.90
3944;DHT22;1986;52.546;13.428;2023-11-19T09:00:57;8.60;99.90
3944;DHT22;1986;52.546;13.428;2023-11-19T09:03:24;8.70;99.90
3944;DHT22;1986;52.546;13.428;2023-11-19T09:05:52;8.70;99.90
3944;DHT22;1986;52.546;13.428;2023-11-19T09:08:20;8.90;99.90
3944;DHT22;1986;52.546;13.428;2023-11-19T09:10:47;9.00;99.90
3944;DHT22;1986;52.546;13.428;2023-11-19T09:13:13;9.10;99.90
3944;DHT22;1986;52.546;13.428;2023-11-19T09:15:41;9.20;99.90
3944;DHT22;1986;52.546;13.428;2023-11-19T09:18:10;9.10;99.90
3944;DHT22;1986;52.546;13.428;2023-11-19T09:20:36;9.30;99.90
3944;DHT22;1986;52.546;13.428;2023-11-19T09:23:04;9.50;99.90
3944;DHT22;1986;52.546;13.428;2023-11-19T09:25:31;9.60;99.90
3944;DHT22;1986;52.546;13.428;2023-11-19T09:27:58;9.60;99.90
3944;DHT22;1986;52.546;13.428;2023-11-19T09:30:25;9.70;99.90
3944;DHT22;1986;52.546;13.428;2023-11-19T09:32:53;9.70;99.90
3944;DHT22;1986;52.546;13.428;2023-11-19T09:35:22;9.80;99.90
3944;DHT22;1986;52.546;13.428;2023-11-19T09:37:50;9.90;99.90
3944;DHT22;1986;52.546;13.428;2023-11-19T09:40:18;10.00;99.90
3944;DHT22;1986;52.546;13.428;2023-11-19T09:42:50;10.20;99.90
3944;DHT22;1986;52.546;13.428;2023-11-19T09:45:21;10.30;99.90
3944;DHT22;1986;52.546;13.428;2023-11-19T09:47:51;10.60;99.90
3944;DHT22;1986;52.546;13.428;2023-11-19T09:50:24;10.70;99.90
3944;DHT22;1986;52.546;13.428;2023-11-19T09:52:51;10.90;99.90
3944;DHT22;1986;52.546;13.428;2023-11-19T09:55:18;11.10;99.90
3944;DHT22;1986;52.546;13.428;2023-11-19T09:57:49;11.30;99.90
3944;DHT22;1986;52.546;13.428;2023-11-19T10:00:24;11.50;99.90
3944;DHT22;1986;52.546;13.428;2023-11-19T10:02:51;11.60;99.90
3944;DHT22;1986;52.546;13.428;2023-11-19T10:05:20;11.80;99.90
3944;DHT22;1986;52.546;13.428;2023-11-19T10:07:50;11.80;99.90
3944;DHT22;1986;52.546;13.428;2023-11-19T10:10:17;11.80;99.90
3944;DHT22;1986;52.546;13.428;2023-11-19T10:12:45;11.90;99.90
3944;DHT22;1986;52.546;13.428;2023-11-19T10:15:17;12.00;99.90
3944;DHT22;1986;52.546;13.428;2023-11-19T10:17:46;12.30;99.90
3944;DHT22;1986;52.546;13.428;2023-11-19T10:20:13;12.30;99.90
3944;DHT22;1986;52.546;13.428;2023-11-19T10:22:42;12.50;99.90
3944;DHT22;1986;52.546;13.428;2023-11-19T10:25:22;12.50;99.90
3944;DHT22;1986;52.546;13.428;2023-11-19T10:27:55;12.60;99.90
3944;DHT22;1986;52.546;13.428;2023-11-19T10:30:23;12.60;99.90
3944;DHT22;1986;52.546;13.428;2023-11-19T10:33:07;12.80;99.90
3944;DHT22;1986;52.546;13.428;2023-11-19T10:35:51;12.80;99.90
3944;DHT22;1986;52.546;13.428;2023-11-19T10:38:19;12.90;99.90
3944;DHT22;1986;52.546;13.428;2023-11-19T10:40:49;13.00;99.90
3944;DHT22;1986;52.546;13.428;2023-11-19T10:43:17;13.00;99.90
3944;DHT22;1986;52.546;13.428;2023-11-19T10:45:44;13.10;99.90
3944;DHT22;1986;52.546;13.428;2023-11-19T10:48:11;13.20;99.90
3944;DHT22;1986;52.546;13.428;2023-11-19T10:50:39;13.30;99.90
3944;DHT22;1986;52.546;13.428;2023-11-19T10:53:10;13.40;99.90
3944;DHT22;1986;52.546;13.428;2023-11-19T10:55:39;13.50;99.90
3944;DHT22;1986;52.546;13.428;2023-11-19T10:58:09;13.50;99.90
3944;DHT22;1986;52.546;13.428;2023-11-19T11:00:38;13.60;99.90
3944;DHT22;1986;52.546;13.428;2023-11-19T11:03:10;13.60;99.90
3944;DHT22;1986;52.546;13.428;2023-11-19T11:05:39;13.60;99.90
3944;DHT22;1986;52.546;13.428;2023-11-19T11:08:07;13.60;99.90
3944;DHT22;1986;52.546;13.428;2023-11-19T11:10:39;13.70;99.90
3944;DHT22;1986;52.546;13.428;2023-11-19T11:13:08;13.70;99.90
3944;DHT22;1986;52.546;13.428;2023-11-19T11:15:36;13.70;99.90
3944;DHT22;1986;52.546;13.428;2023-11-19T11:18:05;13.70;99.90
3944;DHT22;1986;52.546;13.428;2023-11-19T11:20:35;13.80;99.90
3944;DHT22;1986;52.546;13.428;2023-11-19T11:23:19;13.70;99.90
3944;DHT22;1986;52.546;13.428;2023-11-19T11:25:56;13.90;99.90
3944;DHT22;1986;52.546;13.428;2023-11-19T11:28:34;13.80;99.90
3944;DHT22;1986;52.546;13.428;2023-11-19T11:31:20;13.50;99.90
3944;DHT22;1986;52.546;13.428;2023-11-19T11:34:08;13.50;99.90
3944;DHT22;1986;52.546;13.428;2023-11-19T11:36:45;13.50;99.90
3944;DHT22;1986;52.546;13.428;2023-11-19T11:39:16;13.20;99.90
3944;DHT22;1986;52.546;13.428;2023-11-19T11:41:45;13.20;99.90
3944;DHT22;1986;52.546;13.428;2023-11-19T11:44:14;13.20;99.90
3944;DHT22;1986;52.546;13.428;2023-11-19T11:46:53;13.20;99.90
3944;DHT22;1986;52.546;13.428;2023-11-19T11:49:28;13.10;99.90
3944;DHT22;1986;52.546;13.428;2023-11-19T11:52:01;13.20;99.90
3944;DHT22;1986;52.546;13.428;2023-11-19T11:54:31;13.10;99.90
3944;DHT22;1986;52.546;13.428;2023-11-19T11:57:08;13.10;99.90
3944;DHT22;1986;52.546;13.428;2023-11-19T11:59:45;13.10;99.90
3944;DHT22;1986;52.546;13.428;2023-11-19T12:02:16;13.00;99.90
3944;DHT22;1986;52.546;13.428;2023-11-19T12:04:47;13.00;99.90
3944;DHT22;1986;52.546;13.428;2023-11-19T12:07:17;13.00;99.90
3944;DHT22;1986;52.546;13.428;2023-11-19T12:09:51;12.90;99.90
3944;DHT22;1986;52.546;13.428;2023-11-19T12:12:21;12.90;99.90
3944;DHT22;1986;52.546;13.428;2023-11-19T12:15:07;12.90;99.90
3944;DHT22;1986;52.546;13.428;2023-11-19T12:17:43;12.90;99.90
3944;DHT22;1986;52.546;13.428;2023-11-19T12:20:15;13.00;99.90
3944;DHT22;1986;52.546;13.428;2023-11-19T12:22:43;13.00;99.90
3944;DHT22;1986;52.546;13.428;2023-11-19T12:25:12;13.00;99.90
3944;DHT22;1986;52.546;13.428;2023-11-19T12:27:40;13.00;99.90
3944;DHT22;1986;52.546;13.428;2023-11-19T12:30:10;13.10;99.90
3944;DHT22;1986;52.546;13.428;2023-11-19T12:32:38;13.00;99.90
3944;DHT22;1986;52.546;13.428;2023-11-19T12:35:07;13.00;99.90
3944;DHT22;1986;52.546;13.428;2023-11-19T12:37:44;13.00;99.90
3944;DHT22;1986;52.546;13.428;2023-11-19T12:40:16;13.00;99.90
3944;DHT22;1986;52.546;13.428;2023-11-19T12:42:44;13.00;99.90
3944;DHT22;1986;52.546;13.428;2023-11-19T12:45:14;12.90;99.90
3944;DHT22;1986;52.546;13.428;2023-11-19T12:47:42;12.80;99.90
3944;DHT22;1986;52.546;13.428;2023-11-19T12:50:10;12.70;99.90
3944;DHT22;1986;52.546;13.428;2023-11-19T12:52:38;12.60;99.90
3944;DHT22;1986;52.546;13.428;2023-11-19T12:57:50;12.50;99.90
3944;DHT22;1986;52.546;13.428;2023-11-19T13:00:21;12.40;99.90
3944;DHT22;1986;52.546;13.428;2023-11-19T13:02:51;12.40;99.90
3944;DHT22;1986;52.546;13.428;2023-11-19T13:05:27;12.40;99.90
3944;DHT22;1986;52.546;13.428;2023-11-19T13:08:04;12.40;99.90
3944;DHT22;1986;52.546;13.428;2023-11-19T13:10:52;12.20;99.90
3944;DHT22;1986;52.546;13.428;2023-11-19T13:13:21;12.20;99.90
3944;DHT22;1986;52.546;13.428;2023-11-19T13:15:50;12.20;99.90
3944;DHT22;1986;52.546;13.428;2023-11-19T13:18:19;12.20;99.90
3944;DHT22;1986;52.546;13.428;2023-11-19T13:20:46;12.30;99.90
3944;DHT22;1986;52.546;13.428;2023-11-19T13:23:13;12.30;99.90
3944;DHT22;1986;52.546;13.428;2023-11-19T13:25:41;12.30;99.90
3944;DHT22;1986;52.546;13.428;2023-11-19T13:28:10;12.30;99.90
3944;DHT22;1986;52.546;13.428;2023-11-19T13:30:38;12.30;99.90
3944;DHT22;1986;52.546;13.428;2023-11-19T13:33:06;12.30;99.90
3944;DHT22;1986;52.546;13.428;2023-11-19T13:35:33;12.30;99.90
3944;DHT22;1986;52.546;13.428;2023-11-19T13:38:00;12.20;99.90
3944;DHT22;1986;52.546;13.428;2023-11-19T13:40:27;12.20;99.90
3944;DHT22;1986;52.546;13.428;2023-11-19T13:42:59;12.20;99.90
3944;DHT22;1986;52.546;13.428;2023-11-19T13:45:26;12.30;99.90
3944;DHT22;1986;52.546;13.428;2023-11-19T13:47:53;12.20;99.90
3944;DHT22;1986;52.546;13.428;2023-11-19T13:50:22;12.30;99.90
3944;DHT22;1986;52.546;13.428;2023-11-19T13:52:49;12.30;99.90
3944;DHT22;1986;52.546;13.428;2023-11-19T13:55:16;12.30;99.90
3944;DHT22;1986;52.546;13.428;2023-11-19T13:57:43;12.30;99.90
3944;DHT22;1986;52.546;13.428;2023-11-19T14:00:12;12.30;99.90
3944;DHT22;1986;52.546;13.428;2023-11-19T14:02:42;12.30;99.90
3944;DHT22;1986;52.546;13.428;2023-11-19T14:05:10;12.30;99.90
3944;DHT22;1986;52.546;13.428;2023-11-19T14:07:40;12.30;99.90
3944;DHT22;1986;52.546;13.428;2023-11-19T14:10:08;12.30;99.90
3944;DHT22;1986;52.546;13.428;2023-11-19T14:12:36;12.30;99.90
3944;DHT22;1986;52.546;13.428;2023-11-19T14:15:05;12.30;99.90
3944;DHT22;1986;52.546;13.428;2023-11-19T14:17:33;12.30;99.90
3944;DHT22;1986;52.546;13.428;2023-11-19T14:20:01;12.30;99.90
3944;DHT22;1986;52.546;13.428;2023-11-19T14:22:30;12.30;99.90
3944;DHT22;1986;52.546;13.428;2023-11-19T14:24:58;12.30;99.90
3944;DHT22;1986;52.546;13.428;2023-11-19T14:27:27;12.30;99.90
3944;DHT22;1986;52.546;13.428;2023-11-19T14:29:56;12.30;99.90
3944;DHT22;1986;52.546;13.428;2023-11-19T14:32:24;12.30;99.90
3944;DHT22;1986;52.546;13.428;2023-11-19T14:34:51;12.30;99.90
3944;DHT22;1986;52.546;13.428;2023-11-19T14:37:22;12.30;99.90
3944;DHT22;1986;52.546;13.428;2023-11-19T14:39:49;12.20;99.90
3944;DHT22;1986;52.546;13.428;2023-11-19T14:42:18;12.20;99.90
3944;DHT22;1986;52.546;13.428;2023-11-19T14:44:45;12.20;99.90
3944;DHT22;1986;52.546;13.428;2023-11-19T14:47:12;12.20;99.90
3944;DHT22;1986;52.546;13.428;2023-11-19T14:49:41;12.20;99.90
3944;DHT22;1986;52.546;13.428;2023-11-19T14:52:08;12.20;99.90
3944;DHT22;1986;52.546;13.428;2023-11-19T14:54:36;12.20;99.90
3944;DHT22;1986;52.546;13.428;2023-11-19T14:57:08;12.20;99.90
3944;DHT22;1986;52.546;13.428;2023-11-19T14:59:37;12.10;99.90
3944;DHT22;1986;52.546;13.428;2023-11-19T15:02:05;12.10;99.90
3944;DHT22;1986;52.546;13.428;2023-11-19T15:04:33;12.10;99.90
3944;DHT22;1986;52.546;13.428;2023-11-19T15:07:00;12.20;99.90
3944;DHT22;1986;52.546;13.428;2023-11-19T15:09:29;12.20;99.90
3944;DHT22;1986;52.546;13.428;2023-11-19T15:11:59;12.10;99.90
3944;DHT22;1986;52.546;13.428;2023-11-19T15:14:27;12.10;99.90
3944;DHT22;1986;52.546;13.428;2023-11-19T15:16:57;12.00;99.90
3944;DHT22;1986;52.546;13.428;2023-11-19T15:19:24;12.10;99.90
3944;DHT22;1986;52.546;13.428;2023-11-19T15:21:51;12.10;99.90
3944;DHT22;1986;52.546;13.428;2023-11-19T15:24:20;12.00;99.90
3944;DHT22;1986;52.546;13.428;2023-11-19T15:26:47;12.10;99.90
3944;DHT22;1986;52.546;13.428;2023-11-19T15:29:14;12.00;99.90
3944;DHT22;1986;52.546;13.428;2023-11-19T15:31:41;12.00;99.90
3944;DHT22;1986;52.546;13.428;2023-11-19T15:34:09;12.00;99.90
3944;DHT22;1986;52.546;13.428;2023-11-19T15:36:36;12.10;99.90
3944;DHT22;1986;52.546;13.428;2023-11-19T15:39:03;12.00;99.90
3944;DHT22;1986;52.546;13.428;2023-11-19T15:41:32;12.10;99.90
3944;DHT22;1986;52.546;13.428;2023-11-19T15:44:00;12.00;99.90
3944;DHT22;1986;52.546;13.428;2023-11-19T15:46:29;12.00;99.90
3944;DHT22;1986;52.546;13.428;2023-11-19T15:48:58;12.00;99.90
3944;DHT22;1986;52.546;13.428;2023-11-19T15:51:26;12.00;99.90
3944;DHT22;1986;52.546;13.428;2023-11-19T15:53:55;12.00;99.90
3944;DHT22;1986;52.546;13.428;2023-11-19T15:56:23;12.00;99.90
3944;DHT22;1986;52.546;13.428;2023-11-19T15:58:50;12.00;99.90
3944;DHT22;1986;52.546;13.428;2023-11-19T16:01:23;12.00;99.90
3944;DHT22;1986;52.546;13.428;2023-11-19T16:03:50;12.00;99.90
3944;DHT22;1986;52.546;13.428;2023-11-19T16:06:18;12.00;99.90
3944;DHT22;1986;52.546;13.428;2023-11-19T16:08:47;11.90;99.90